Time;durP1;ratioP1;P1;durP2;ratioP2;P2;SDS_P1;SDS_P2;PMS_P1;PMS_P2;Temp;Humidity;BMP_temperature;BMP_pressure;BME280_temperature;BME280_humidity;BME280_pressure;Samples;Min_cycle;Max_cycle;Signal;HPM_P1;HPM_P2
2021/09/25 00:00:01;;;;;;;6.87;5.20;;;15.70;99.90;;;;;;4986805;28;20175;-82
2021/09/25 00:02:26;;;;;;;8.40;5.30;;;15.70;99.90;;;;;;4985782;28;20261;-83
2021/09/25 00:04:52;;;;;;;7.27;5.50;;;15.80;99.90;;;;;;5002691;28;20262;-82
2021/09/25 00:07:17;;;;;;;8.20;5.53;;;15.80;99.90;;;;;;4986103;28;20176;-83
2021/09/25 00:09:43;;;;;;;6.70;5.60;;;15.90;99.90;;;;;;4985886;28;20390;-82
2021/09/25 00:12:16;;;;;;;5.97;5.37;;;15.90;99.90;;;;;;4999441;28;20635;-81
2021/09/25 00:14:43;;;;;;;6.43;5.13;;;16.00;99.90;;;;;;4981865;28;20211;-82
2021/09/25 00:17:09;;;;;;;6.67;5.53;;;16.00;99.90;;;;;;4981759;28;20180;-81
2021/09/25 00:19:35;;;;;;;6.37;5.70;;;15.90;99.90;;;;;;4981651;28;20187;-81
2021/09/25 00:22:00;;;;;;;7.47;5.70;;;15.90;99.90;;;;;;4997898;28;20553;-81
2021/09/25 00:24:26;;;;;;;8.00;5.53;;;16.00;99.90;;;;;;4981129;28;20206;-81
2021/09/25 00:26:52;;;;;;;7.30;5.83;;;16.00;99.90;;;;;;4981239;28;20171;-83
2021/09/25 00:29:17;;;;;;;9.30;5.40;;;16.00;99.90;;;;;;4981764;28;20180;-81
2021/09/25 00:31:44;;;;;;;6.70;5.23;;;16.00;99.90;;;;;;4981812;28;20519;-81
2021/09/25 00:34:14;;;;;;;7.97;5.40;;;16.00;99.90;;;;;;4998326;28;20223;-82
2021/09/25 00:36:42;;;;;;;7.57;5.97;;;16.10;99.90;;;;;;4998267;28;20176;-81
2021/09/25 00:39:09;;;;;;;10.77;5.33;;;16.10;99.90;;;;;;4998722;28;20214;-82
2021/09/25 00:41:35;;;;;;;7.93;5.40;;;16.10;99.90;;;;;;4981571;28;20176;-83
2021/09/25 00:44:02;;;;;;;6.00;5.40;;;16.10;99.90;;;;;;4981808;28;20235;-81
2021/09/25 00:46:27;;;;;;;6.80;5.47;;;16.10;99.90;;;;;;4981508;28;20214;-82
2021/09/25 00:48:54;;;;;;;7.87;5.73;;;16.00;99.90;;;;;;4981217;28;20183;-82
2021/09/25 00:51:20;;;;;;;9.97;6.10;;;16.00;99.90;;;;;;4998010;28;20595;-81
2021/09/25 00:53:45;;;;;;;9.00;6.33;;;16.00;99.90;;;;;;4981351;28;20207;-82
2021/09/25 00:56:11;;;;;;;8.33;6.10;;;16.00;99.90;;;;;;4981804;28;20211;-82
2021/09/25 00:58:37;;;;;;;8.40;6.43;;;16.00;99.90;;;;;;4997730;28;20175;-82
2021/09/25 01:01:03;;;;;;;8.07;5.83;;;16.00;99.90;;;;;;4981522;28;20271;-82
2021/09/25 01:03:30;;;;;;;10.07;6.30;;;16.00;99.90;;;;;;4981170;28;20569;-82
2021/09/25 01:05:56;;;;;;;9.93;6.00;;;16.00;99.90;;;;;;4997726;28;20172;-82
2021/09/25 01:08:23;;;;;;;10.30;6.90;;;16.00;99.90;;;;;;4997697;28;20190;-81
2021/09/25 01:10:50;;;;;;;8.20;6.17;;;16.00;99.90;;;;;;4965726;28;20179;-81
2021/09/25 01:13:16;;;;;;;9.83;6.07;;;16.00;99.90;;;;;;4981151;28;20238;-81
2021/09/25 01:15:42;;;;;;;9.13;6.00;;;16.00;99.90;;;;;;4981520;28;20196;-81
2021/09/25 01:18:10;;;;;;;8.17;6.40;;;16.00;99.90;;;;;;4981571;28;20168;-83
2021/09/25 01:20:35;;;;;;;9.80;6.90;;;16.00;99.90;;;;;;4997472;28;20233;-81
2021/09/25 01:23:01;;;;;;;9.27;6.70;;;16.00;99.90;;;;;;4980851;28;20270;-82
2021/09/25 01:25:29;;;;;;;6.60;5.90;;;16.00;99.90;;;;;;4981300;28;20609;-81
2021/09/25 01:27:54;;;;;;;10.47;6.53;;;16.00;99.90;;;;;;4997803;28;20180;-81
2021/09/25 01:30:21;;;;;;;9.50;6.60;;;16.00;99.90;;;;;;4981211;28;20198;-81
2021/09/25 01:32:48;;;;;;;10.20;7.10;;;16.00;99.90;;;;;;4965546;28;20343;-83
2021/09/25 01:35:14;;;;;;;9.27;7.10;;;15.90;99.90;;;;;;4996787;28;20302;-84
2021/09/25 01:37:40;;;;;;;11.27;6.93;;;16.00;99.90;;;;;;4967481;28;20258;-82
2021/09/25 01:40:07;;;;;;;9.70;6.63;;;16.00;99.90;;;;;;4984470;28;20182;-81
2021/09/25 01:42:33;;;;;;;8.67;6.77;;;16.00;99.90;;;;;;5000473;28;20180;-82
2021/09/25 01:44:58;;;;;;;9.47;6.47;;;15.90;99.90;;;;;;5000949;28;20192;-82
2021/09/25 01:47:24;;;;;;;9.80;6.27;;;15.90;99.90;;;;;;4984684;28;20194;-81
2021/09/25 01:49:49;;;;;;;10.33;7.23;;;16.00;99.90;;;;;;4984012;28;20176;-81
2021/09/25 01:52:17;;;;;;;8.97;6.77;;;15.90;99.90;;;;;;5000428;28;20561;-82
2021/09/25 01:54:42;;;;;;;8.77;6.37;;;16.00;99.90;;;;;;4984407;28;20219;-81
2021/09/25 01:57:08;;;;;;;9.90;7.13;;;16.00;99.90;;;;;;5000840;28;20187;-83
2021/09/25 01:59:35;;;;;;;11.27;6.73;;;16.00;99.90;;;;;;4984628;28;20176;-81
2021/09/25 02:02:03;;;;;;;10.83;7.17;;;16.00;99.90;;;;;;4983787;28;20171;-81
2021/09/25 02:04:33;;;;;;;10.17;6.93;;;16.00;99.90;;;;;;4984426;28;20200;-83
2021/09/25 02:06:59;;;;;;;12.27;7.17;;;16.00;99.90;;;;;;4984940;28;20203;-82
2021/09/25 02:09:24;;;;;;;11.20;7.47;;;16.00;99.90;;;;;;4984332;28;20183;-82
2021/09/25 02:11:50;;;;;;;9.57;6.77;;;16.00;99.90;;;;;;4984581;28;20176;-81
2021/09/25 02:14:15;;;;;;;10.17;7.00;;;15.90;99.90;;;;;;5000483;28;20567;-81
2021/09/25 02:16:41;;;;;;;12.47;7.30;;;15.90;99.90;;;;;;4983818;28;20651;-81
2021/09/25 02:19:06;;;;;;;9.57;6.87;;;15.90;99.90;;;;;;4984348;28;20197;-82
2021/09/25 02:21:32;;;;;;;10.80;6.87;;;15.90;99.90;;;;;;5000517;28;20266;-82
2021/09/25 02:23:59;;;;;;;10.00;7.00;;;15.90;99.90;;;;;;4999547;28;20204;-79
2021/09/25 02:26:26;;;;;;;8.97;6.63;;;15.90;99.90;;;;;;4983670;28;20186;-83
2021/09/25 02:28:52;;;;;;;11.10;6.77;;;15.90;99.90;;;;;;4983712;28;20207;-82
2021/09/25 02:31:20;;;;;;;10.10;6.70;;;15.90;99.90;;;;;;4999741;28;20171;-80
2021/09/25 02:33:47;;;;;;;9.73;6.97;;;15.90;99.90;;;;;;4983316;28;20242;-81
2021/09/25 02:36:12;;;;;;;11.57;6.87;;;15.90;99.90;;;;;;4983604;28;20203;-81
2021/09/25 02:38:38;;;;;;;9.17;6.97;;;15.80;99.90;;;;;;4983400;28;20234;-81
2021/09/25 02:41:05;;;;;;;10.80;6.90;;;15.80;99.90;;;;;;4983261;28;20550;-81
2021/09/25 02:43:30;;;;;;;10.13;6.90;;;15.80;99.90;;;;;;4967069;28;20697;-82
2021/09/25 02:45:57;;;;;;;11.03;7.13;;;15.70;99.90;;;;;;4983285;28;20176;-83
2021/09/25 02:48:25;;;;;;;9.07;6.83;;;15.80;99.90;;;;;;4966755;28;20604;-82
2021/09/25 02:50:51;;;;;;;9.23;6.73;;;15.70;99.90;;;;;;4983423;28;20186;-82
2021/09/25 02:53:17;;;;;;;10.03;6.67;;;15.80;99.90;;;;;;4983236;28;20184;-82
2021/09/25 02:55:44;;;;;;;8.77;6.47;;;15.70;99.90;;;;;;4998805;28;20203;-83
2021/09/25 02:58:09;;;;;;;10.07;6.63;;;15.70;99.90;;;;;;4983349;28;20176;-82
2021/09/25 03:00:36;;;;;;;9.40;6.53;;;15.60;99.90;;;;;;4998820;28;20306;-81
2021/09/25 03:03:02;;;;;;;10.37;7.07;;;15.60;99.90;;;;;;4982944;28;20203;-81
2021/09/25 03:05:29;;;;;;;9.97;7.20;;;15.60;99.90;;;;;;4999276;28;20200;-82
2021/09/25 03:07:58;;;;;;;9.57;6.30;;;15.60;99.90;;;;;;4982791;28;20218;-82
2021/09/25 03:10:23;;;;;;;10.77;7.00;;;15.60;99.90;;;;;;4966691;28;20190;-83
2021/09/25 03:12:49;;;;;;;10.50;6.90;;;15.60;99.90;;;;;;4982810;28;20195;-79
2021/09/25 03:15:16;;;;;;;10.33;6.70;;;15.60;99.90;;;;;;4999326;28;20199;-81
2021/09/25 03:17:42;;;;;;;10.47;6.87;;;15.60;99.90;;;;;;4966929;28;20271;-82
2021/09/25 03:20:08;;;;;;;9.40;6.77;;;15.60;99.90;;;;;;4999218;28;20212;-81
2021/09/25 03:22:35;;;;;;;10.40;6.50;;;15.60;99.90;;;;;;4982881;28;20171;-81
2021/09/25 03:25:06;;;;;;;10.33;6.77;;;15.70;99.90;;;;;;4982531;28;20278;-82
2021/09/25 03:27:32;;;;;;;10.10;6.73;;;15.70;99.90;;;;;;5000172;28;20180;-82
2021/09/25 03:29:58;;;;;;;11.03;7.50;;;15.60;99.90;;;;;;4999040;28;20194;-81
2021/09/25 03:32:23;;;;;;;10.23;6.90;;;15.60;99.90;;;;;;4981976;28;20172;-82
2021/09/25 03:34:49;;;;;;;10.33;6.80;;;15.60;99.90;;;;;;4982448;28;20211;-82
2021/09/25 03:37:15;;;;;;;12.63;6.77;;;15.60;99.90;;;;;;5001720;28;20171;-82
2021/09/25 03:39:41;;;;;;;11.27;7.50;;;15.50;99.90;;;;;;4985220;28;20183;-82
2021/09/25 03:42:06;;;;;;;9.50;6.37;;;15.60;99.90;;;;;;4985904;28;20179;-83
2021/09/25 03:44:34;;;;;;;10.00;6.87;;;15.50;99.90;;;;;;4985054;28;20709;-82
2021/09/25 03:46:59;;;;;;;10.67;7.93;;;15.60;99.90;;;;;;4969338;28;20273;-80
2021/09/25 03:49:26;;;;;;;10.43;6.90;;;15.60;99.90;;;;;;5001270;28;20203;-82
2021/09/25 03:51:54;;;;;;;10.93;7.00;;;15.60;99.90;;;;;;4984532;28;20626;-81
2021/09/25 03:54:21;;;;;;;11.87;7.40;;;15.60;99.90;;;;;;4969304;28;20199;-81
2021/09/25 03:56:47;;;;;;;10.07;7.13;;;15.70;99.90;;;;;;4985312;28;20200;-81
2021/09/25 03:59:13;;;;;;;10.57;6.97;;;15.70;99.90;;;;;;4984568;28;20267;-83
2021/09/25 04:01:39;;;;;;;10.20;6.80;;;15.70;99.90;;;;;;5001721;28;20686;-81
2021/09/25 04:04:04;;;;;;;10.20;6.90;;;15.70;99.90;;;;;;4984929;28;20204;-81
2021/09/25 04:06:30;;;;;;;9.87;6.80;;;15.70;99.90;;;;;;4985815;28;20537;-81
2021/09/25 04:08:55;;;;;;;12.60;7.23;;;15.70;99.90;;;;;;5001175;28;20206;-82
2021/09/25 04:11:22;;;;;;;12.03;7.40;;;15.70;99.90;;;;;;4985130;28;20172;-81
2021/09/25 04:13:48;;;;;;;9.40;6.93;;;15.70;99.90;;;;;;4985181;28;20203;-81
2021/09/25 04:16:14;;;;;;;10.70;7.27;;;15.70;99.90;;;;;;4985287;28;20239;-83
2021/09/25 04:18:40;;;;;;;10.80;7.13;;;15.70;99.90;;;;;;4985255;28;20238;-82
2021/09/25 04:21:09;;;;;;;11.73;7.53;;;15.70;99.90;;;;;;4995733;28;20248;-82
2021/09/25 04:23:35;;;;;;;11.27;7.13;;;15.70;99.90;;;;;;4996239;28;20640;-83
2021/09/25 04:26:02;;;;;;;9.00;6.60;;;15.70;99.90;;;;;;4996586;28;20183;-82
2021/09/25 04:28:28;;;;;;;10.87;7.53;;;15.70;99.90;;;;;;4995891;28;20682;-83
2021/09/25 04:30:53;;;;;;;8.90;7.10;;;15.70;99.90;;;;;;5030502;28;20183;-84
2021/09/25 04:33:21;;;;;;;9.60;6.57;;;15.70;99.90;;;;;;4996164;28;20183;-82
2021/09/25 04:35:47;;;;;;;9.70;7.20;;;15.70;99.90;;;;;;5012715;28;20211;-81
2021/09/25 04:38:14;;;;;;;10.00;6.90;;;15.70;99.90;;;;;;4998984;28;20171;-83
2021/09/25 04:40:40;;;;;;;10.57;7.13;;;15.70;99.90;;;;;;4981669;28;20190;-84
2021/09/25 04:43:05;;;;;;;11.33;7.10;;;15.60;99.90;;;;;;4972982;28;20180;-82
2021/09/25 04:45:31;;;;;;;11.40;7.40;;;15.60;99.90;;;;;;4979845;28;20184;-82
2021/09/25 04:47:56;;;;;;;10.03;7.10;;;15.60;99.90;;;;;;4978722;28;20210;-82
2021/09/25 04:50:24;;;;;;;11.87;6.90;;;15.60;99.90;;;;;;4947092;28;20674;-83
2021/09/25 04:52:50;;;;;;;8.97;6.80;;;15.70;99.90;;;;;;4962990;28;20196;-81
2021/09/25 04:55:15;;;;;;;9.70;7.00;;;15.70;99.90;;;;;;4961283;28;20214;-82
2021/09/25 04:57:41;;;;;;;9.13;6.87;;;15.60;99.90;;;;;;4960671;28;20171;-81
2021/09/25 05:00:09;;;;;;;9.43;7.30;;;15.60;99.90;;;;;;4960688;28;20216;-84
2021/09/25 05:02:36;;;;;;;10.03;7.20;;;15.60;99.90;;;;;;4961252;28;20245;-82
2021/09/25 05:05:03;;;;;;;12.20;6.63;;;15.60;99.90;;;;;;4980144;28;20195;-81
2021/09/25 05:07:28;;;;;;;10.93;6.67;;;15.60;99.90;;;;;;4979882;28;20180;-82
2021/09/25 05:09:54;;;;;;;10.13;7.00;;;15.60;99.90;;;;;;4979973;28;20183;-81
2021/09/25 05:12:20;;;;;;;11.20;7.50;;;15.50;99.90;;;;;;4998140;28;20183;-82
2021/09/25 05:14:45;;;;;;;11.13;6.97;;;15.60;99.90;;;;;;4983507;28;20215;-82
2021/09/25 05:17:11;;;;;;;10.60;7.23;;;15.60;99.90;;;;;;4983381;28;20665;-82
2021/09/25 05:19:36;;;;;;;12.23;7.40;;;15.60;99.90;;;;;;4999853;28;20183;-83
2021/09/25 05:22:02;;;;;;;10.57;6.73;;;15.60;99.90;;;;;;4983094;28;20176;-82
2021/09/25 05:24:29;;;;;;;10.53;6.57;;;15.60;99.90;;;;;;4999239;28;20249;-81
2021/09/25 05:26:55;;;;;;;8.90;6.10;;;15.60;99.90;;;;;;4983180;28;20172;-81
2021/09/25 05:29:23;;;;;;;9.83;6.73;;;15.60;99.90;;;;;;4986364;28;20260;-83
2021/09/25 05:31:49;;;;;;;8.83;6.30;;;15.60;99.90;;;;;;4987142;28;20172;-81
2021/09/25 05:34:14;;;;;;;12.00;7.13;;;15.60;99.90;;;;;;5002340;28;20226;-81
2021/09/25 05:36:40;;;;;;;12.23;7.10;;;15.60;99.90;;;;;;4986218;28;20210;-81
2021/09/25 05:39:08;;;;;;;11.10;6.70;;;15.60;99.90;;;;;;5002948;28;20513;-83
2021/09/25 05:41:36;;;;;;;10.13;6.80;;;15.60;99.90;;;;;;4986365;28;20183;-83
2021/09/25 05:44:04;;;;;;;9.40;6.67;;;15.60;99.90;;;;;;5002971;28;20191;-82
2021/09/25 05:46:30;;;;;;;10.23;7.10;;;15.60;99.90;;;;;;4987011;28;20196;-81
2021/09/25 05:48:55;;;;;;;9.90;6.53;;;15.60;99.90;;;;;;4986913;28;20271;-81
2021/09/25 05:51:21;;;;;;;12.13;7.07;;;15.60;99.90;;;;;;4986761;28;20198;-82
2021/09/25 05:53:46;;;;;;;12.43;6.73;;;15.60;99.90;;;;;;5002450;28;20203;-82
2021/09/25 05:56:13;;;;;;;10.23;6.90;;;15.60;99.90;;;;;;4986342;28;20199;-81
2021/09/25 05:58:40;;;;;;;11.23;6.77;;;15.60;99.90;;;;;;4984948;28;20172;-83
2021/09/25 06:01:06;;;;;;;11.80;7.00;;;15.60;99.90;;;;;;4959121;28;20190;-83
2021/09/25 06:03:33;;;;;;;9.37;6.60;;;15.60;99.90;;;;;;4966117;28;20199;-81
2021/09/25 06:05:59;;;;;;;11.20;7.00;;;15.60;99.90;;;;;;4968784;28;20678;-82
2021/09/25 06:08:25;;;;;;;8.93;6.33;;;15.60;99.90;;;;;;4966310;28;20586;-83
2021/09/25 06:10:51;;;;;;;10.57;6.57;;;15.60;99.90;;;;;;4968607;28;20188;-82
2021/09/25 06:13:16;;;;;;;10.00;6.47;;;15.60;99.90;;;;;;4981946;28;20627;-84
2021/09/25 06:15:44;;;;;;;8.77;6.30;;;15.60;99.90;;;;;;4996858;28;20207;-83
2021/09/25 06:18:10;;;;;;;10.40;6.50;;;15.70;99.90;;;;;;4993335;28;20202;-80
2021/09/25 06:20:36;;;;;;;9.97;6.77;;;15.70;99.90;;;;;;4954976;28;20187;-78
2021/09/25 06:23:02;;;;;;;12.50;7.00;;;15.70;99.90;;;;;;4959081;28;20652;-79
2021/09/25 06:25:28;;;;;;;14.83;6.70;;;15.70;99.90;;;;;;4995977;28;20295;-85
2021/09/25 06:27:54;;;;;;;9.20;6.23;;;15.70;99.90;;;;;;4982009;28;20191;-86
2021/09/25 06:30:20;;;;;;;10.73;6.77;;;15.70;99.90;;;;;;4999506;28;20192;-84
2021/09/25 06:32:46;;;;;;;11.07;6.93;;;15.70;99.90;;;;;;5000882;28;20175;-84
2021/09/25 06:35:12;;;;;;;9.57;6.00;;;15.70;99.90;;;;;;4999037;23;20219;-81
2021/09/25 06:37:38;;;;;;;12.97;6.63;;;15.70;99.90;;;;;;5010307;28;20196;-81
2021/09/25 06:40:05;;;;;;;10.70;6.27;;;15.70;99.90;;;;;;4964811;28;20239;-80
2021/09/25 06:42:31;;;;;;;9.37;6.47;;;15.70;99.90;;;;;;4964132;28;20678;-81
2021/09/25 06:44:56;;;;;;;11.70;6.63;;;15.70;99.90;;;;;;4973034;28;20271;-81
2021/09/25 06:47:22;;;;;;;8.17;6.60;;;15.70;99.90;;;;;;4983253;28;20186;-82
2021/09/25 06:49:47;;;;;;;10.20;6.53;;;15.70;99.90;;;;;;4998506;28;20214;-80
2021/09/25 06:52:13;;;;;;;9.53;6.53;;;15.70;99.90;;;;;;5015163;28;20191;-82
2021/09/25 06:54:39;;;;;;;10.43;6.53;;;15.80;99.90;;;;;;4999385;28;20641;-83
2021/09/25 06:57:05;;;;;;;9.67;6.87;;;15.80;99.90;;;;;;5019828;28;20180;-82
2021/09/25 06:59:30;;;;;;;9.77;6.40;;;15.90;99.90;;;;;;4996898;28;20666;-81
2021/09/25 07:01:56;;;;;;;9.77;6.87;;;15.90;99.90;;;;;;4998649;28;20192;-79
2021/09/25 07:04:22;;;;;;;11.77;7.00;;;15.90;99.90;;;;;;5001521;28;20196;-81
2021/09/25 07:06:47;;;;;;;11.37;7.00;;;16.00;99.90;;;;;;4999147;28;20271;-78
2021/09/25 07:09:13;;;;;;;9.47;6.83;;;16.00;99.90;;;;;;5017260;28;20190;-80
2021/09/25 07:11:39;;;;;;;11.47;7.17;;;16.00;99.90;;;;;;5017505;28;20643;-79
2021/09/25 07:14:04;;;;;;;10.97;6.63;;;16.00;99.90;;;;;;4981796;28;20266;-77
2021/09/25 07:16:30;;;;;;;9.17;6.90;;;16.10;99.90;;;;;;4979843;28;20261;-77
2021/09/25 07:18:55;;;;;;;10.40;6.47;;;16.10;99.90;;;;;;4995548;28;20178;-79
2021/09/25 07:21:21;;;;;;;9.27;6.20;;;16.10;99.90;;;;;;5008011;28;20175;-79
2021/09/25 07:23:47;;;;;;;9.93;6.60;;;16.10;99.90;;;;;;5015945;28;20188;-79
2021/09/25 07:26:12;;;;;;;9.63;6.27;;;16.20;99.90;;;;;;5023251;28;20271;-79
2021/09/25 07:28:38;;;;;;;9.60;6.67;;;16.20;99.90;;;;;;5018677;28;20207;-79
2021/09/25 07:31:05;;;;;;;10.40;6.80;;;16.30;99.90;;;;;;5021215;28;20207;-79
2021/09/25 07:33:30;;;;;;;10.63;6.97;;;16.20;99.90;;;;;;5000862;28;20175;-78
2021/09/25 07:35:56;;;;;;;10.63;6.33;;;16.30;99.90;;;;;;5000284;28;20580;-80
2021/09/25 07:38:21;;;;;;;9.07;6.20;;;16.30;99.90;;;;;;5017446;28;20671;-81
2021/09/25 07:40:47;;;;;;;9.90;6.60;;;16.20;99.90;;;;;;5001834;28;20218;-81
2021/09/25 07:43:12;;;;;;;9.50;6.50;;;16.20;99.90;;;;;;5008657;28;20223;-80
2021/09/25 07:45:38;;;;;;;11.63;6.67;;;16.30;99.90;;;;;;4993635;28;20212;-79
2021/09/25 07:48:04;;;;;;;11.97;6.60;;;16.20;99.90;;;;;;5001422;28;20650;-79
2021/09/25 07:50:30;;;;;;;11.10;6.40;;;16.30;99.90;;;;;;5020939;28;20186;-79
2021/09/25 07:52:56;;;;;;;10.53;6.53;;;16.40;99.90;;;;;;4992741;28;20207;-80
2021/09/25 07:55:22;;;;;;;9.90;6.57;;;16.40;99.90;;;;;;4994070;28;20214;-75
2021/09/25 07:57:47;;;;;;;9.73;6.70;;;16.50;99.90;;;;;;4995228;28;20179;-75
2021/09/25 08:00:13;;;;;;;10.23;6.53;;;16.40;99.90;;;;;;5025404;28;20262;-74
2021/09/25 08:02:40;;;;;;;10.80;7.17;;;16.60;99.90;;;;;;5027956;28;20199;-74
2021/09/25 08:05:06;;;;;;;11.37;6.80;;;16.50;99.90;;;;;;5011578;28;20210;-74
2021/09/25 08:07:32;;;;;;;10.40;6.90;;;16.60;99.90;;;;;;5011407;28;20191;-73
2021/09/25 08:09:58;;;;;;;11.53;6.47;;;16.70;99.90;;;;;;5012879;28;20179;-74
2021/09/25 08:12:23;;;;;;;10.57;6.57;;;16.70;99.90;;;;;;5009005;28;20601;-74
2021/09/25 08:14:49;;;;;;;11.63;6.83;;;16.80;99.90;;;;;;4994029;28;20215;-74
2021/09/25 08:17:14;;;;;;;10.03;6.50;;;16.90;99.90;;;;;;5011286;28;20546;-74
2021/09/25 08:19:40;;;;;;;10.20;6.40;;;16.90;99.90;;;;;;5011127;28;20182;-74
2021/09/25 08:22:05;;;;;;;9.23;6.90;;;17.00;99.90;;;;;;5001675;28;20218;-74
2021/09/25 08:24:31;;;;;;;9.73;6.93;;;17.10;99.90;;;;;;5007889;28;20199;-74
2021/09/25 08:26:57;;;;;;;12.63;7.47;;;17.10;99.90;;;;;;5010822;28;20191;-75
2021/09/25 08:29:22;;;;;;;10.73;6.90;;;17.20;99.90;;;;;;5020976;28;20192;-74
2021/09/25 08:31:48;;;;;;;10.13;6.37;;;17.30;99.90;;;;;;5022624;28;20182;-74
2021/09/25 08:34:14;;;;;;;9.73;6.40;;;17.30;99.90;;;;;;4987632;28;20577;-74
2021/09/25 08:36:40;;;;;;;11.40;7.10;;;17.40;99.90;;;;;;4987444;28;20194;-75
2021/09/25 08:39:09;;;;;;;11.27;6.77;;;17.50;99.90;;;;;;5019075;28;20245;-74
2021/09/25 08:41:35;;;;;;;11.30;7.40;;;17.50;99.90;;;;;;5034954;28;20183;-74
2021/09/25 08:44:00;;;;;;;11.23;7.60;;;17.40;99.90;;;;;;5026702;28;20206;-74
2021/09/25 08:46:26;;;;;;;10.93;7.07;;;17.50;99.90;;;;;;5021133;28;20273;-76
2021/09/25 08:48:52;;;;;;;11.73;7.23;;;17.50;99.90;;;;;;5005773;28;20191;-77
2021/09/25 08:51:18;;;;;;;9.93;7.10;;;17.50;99.90;;;;;;5001969;28;20179;-75
2021/09/25 08:53:43;;;;;;;13.33;7.50;;;17.60;99.90;;;;;;5013284;28;20646;-75
2021/09/25 08:56:09;;;;;;;11.23;7.20;;;17.60;99.90;;;;;;5031325;28;20207;-77
2021/09/25 08:58:34;;;;;;;12.33;7.63;;;17.80;99.90;;;;;;5014590;28;20225;-75
2021/09/25 09:01:00;;;;;;;12.20;7.60;;;17.90;99.90;;;;;;5014512;28;20207;-75
2021/09/25 09:03:34;;;;;;;12.57;7.70;;;18.00;99.90;;;;;;5029824;28;20182;-75
2021/09/25 09:06:02;;;;;;;10.77;7.07;;;18.00;99.90;;;;;;4997625;28;20179;-75
2021/09/25 09:08:28;;;;;;;11.83;7.07;;;18.10;99.90;;;;;;5015719;28;20258;-75
2021/09/25 09:10:54;;;;;;;9.17;6.80;;;18.20;99.90;;;;;;5014427;28;20267;-75
2021/09/25 09:13:19;;;;;;;9.50;7.03;;;18.30;99.90;;;;;;5013969;28;20223;-75
2021/09/25 09:15:48;;;;;;;11.77;7.03;;;18.50;99.90;;;;;;5014423;28;20230;-75
2021/09/25 09:18:14;;;;;;;10.97;7.50;;;18.60;99.90;;;;;;5014378;28;20672;-75
2021/09/25 09:20:40;;;;;;;11.23;8.10;;;18.80;99.90;;;;;;5014192;28;20613;-75
2021/09/25 09:23:19;;;;;;;10.80;7.07;;;18.80;99.90;;;;;;5014077;28;20176;-75
2021/09/25 09:25:44;;;;;;;12.93;7.50;;;18.90;99.90;;;;;;5030802;28;20324;-75
2021/09/25 09:28:15;;;;;;;11.07;7.23;;;19.20;99.90;;;;;;5014106;28;20183;-75
2021/09/25 09:30:48;;;;;;;10.17;7.23;;;19.60;99.90;;;;;;5030793;28;20394;-75
2021/09/25 09:33:39;;;;;;;11.37;6.90;;;19.90;99.90;;;;;;5013928;28;20270;-75
2021/09/25 09:36:30;;;;;;;9.80;7.03;;;19.90;99.90;;;;;;5012374;28;20275;-75
2021/09/25 09:38:59;;;;;;;10.17;7.07;;;20.20;99.90;;;;;;5030715;28;20218;-75
2021/09/25 09:41:28;;;;;;;12.93;7.80;;;20.40;99.90;;;;;;4997789;28;20190;-75
2021/09/25 09:43:56;;;;;;;11.47;7.20;;;20.30;99.90;;;;;;5013751;28;20200;-75
2021/09/25 09:46:29;;;;;;;13.83;7.33;;;20.40;99.90;;;;;;5015081;28;20234;-75
2021/09/25 09:48:55;;;;;;;9.63;6.63;;;20.50;99.90;;;;;;4997350;28;20270;-75
2021/09/25 09:51:56;;;;;;;11.00;7.23;;;20.60;99.90;;;;;;5013804;28;20270;-74
2021/09/25 09:54:33;;;;;;;11.83;7.03;;;20.60;99.90;;;;;;4996971;28;20215;-75
2021/09/25 09:57:04;;;;;;;10.30;7.40;;;20.60;99.90;;;;;;5012643;28;20203;-75
2021/09/25 09:59:30;;;;;;;10.60;7.53;;;20.60;99.90;;;;;;5013038;28;20178;-75
2021/09/25 10:01:55;;;;;;;9.90;7.63;;;20.70;99.90;;;;;;5030008;28;20250;-75
2021/09/25 10:04:21;;;;;;;10.77;6.93;;;20.90;99.90;;;;;;5013641;28;20745;-75
2021/09/25 10:06:47;;;;;;;12.30;7.23;;;21.10;99.90;;;;;;5013300;28;20184;-75
2021/09/25 10:09:17;;;;;;;9.30;6.47;;;21.10;99.90;;;;;;5013527;28;20227;-75
2021/09/25 10:11:45;;;;;;;10.90;6.93;;;21.20;99.90;;;;;;5013411;28;20175;-75
2021/09/25 10:14:12;;;;;;;10.07;6.80;;;21.30;99.90;;;;;;5012977;28;20275;-75
2021/09/25 10:16:38;;;;;;;9.63;6.77;;;21.30;99.90;;;;;;5012871;28;20210;-75
2021/09/25 10:19:04;;;;;;;10.33;7.13;;;21.30;99.90;;;;;;5013247;28;20207;-75
2021/09/25 10:21:32;;;;;;;8.67;6.83;;;21.20;99.90;;;;;;5013255;28;20457;-75
2021/09/25 10:24:00;;;;;;;11.00;7.17;;;21.10;99.90;;;;;;5029320;28;20206;-75
2021/09/25 10:26:26;;;;;;;10.87;6.37;;;21.10;99.90;;;;;;5012909;28;20187;-75
2021/09/25 10:29:04;;;;;;;9.40;6.40;;;21.10;99.90;;;;;;5013138;28;20188;-75
2021/09/25 10:31:31;;;;;;;9.13;6.53;;;21.20;99.90;;;;;;5014139;28;20267;-75
2021/09/25 10:34:14;;;;;;;8.77;5.73;;;21.20;99.90;;;;;;5012715;28;20542;-76
2021/09/25 10:36:43;;;;;;;9.70;6.13;;;21.00;99.90;;;;;;5029479;28;20674;-75
2021/09/25 10:39:26;;;;;;;10.63;6.00;;;21.10;99.90;;;;;;5029451;28;20205;-76
2021/09/25 10:42:15;;;;;;;9.83;5.93;;;21.10;99.90;;;;;;5029287;28;20226;-75
2021/09/25 10:44:48;;;;;;;10.13;6.50;;;21.30;99.90;;;;;;4996694;28;20202;-76
2021/09/25 10:47:19;;;;;;;9.30;6.00;;;21.40;99.90;;;;;;5029141;28;20187;-75
2021/09/25 10:49:49;;;;;;;11.00;5.80;;;21.50;99.90;;;;;;4996193;28;20176;-76
2021/09/25 10:52:16;;;;;;;8.10;5.27;;;21.60;99.90;;;;;;5029094;28;20203;-75
2021/09/25 10:54:43;;;;;;;10.33;6.00;;;21.80;99.90;;;;;;4995945;28;20202;-76
2021/09/25 10:57:18;;;;;;;11.40;6.37;;;22.00;99.90;;;;;;5013673;28;20168;-75
2021/09/25 11:00:29;;;;;;;9.73;5.57;;;22.00;99.90;;;;;;5011440;28;20197;-75
2021/09/25 11:02:54;;;;;;;7.90;4.90;;;21.90;99.90;;;;;;4993951;28;20282;-75
2021/09/25 11:05:59;;;;;;;8.70;5.00;;;21.90;99.90;;;;;;5013497;28;20286;-76
2021/09/25 11:08:33;;;;;;;8.60;4.80;;;21.80;99.90;;;;;;4995725;28;20183;-76
2021/09/25 11:11:09;;;;;;;9.53;4.57;;;21.90;99.90;;;;;;5011502;28;20197;-75
2021/09/25 11:14:12;;;;;;;7.07;4.73;;;22.00;99.90;;;;;;5013278;28;20209;-75
2021/09/25 11:17:04;;;;;;;7.17;4.57;;;22.00;99.90;;;;;;4995773;28;20199;-75
2021/09/25 11:19:40;;;;;;;6.13;5.07;;;22.00;99.90;;;;;;5028617;28;20171;-76
2021/09/25 11:22:17;;;;;;;6.87;5.10;;;22.00;99.90;;;;;;5010826;28;20182;-76
2021/09/25 11:24:47;;;;;;;6.57;4.50;;;22.00;99.90;;;;;;5012044;28;20237;-76
2021/09/25 11:27:21;;;;;;;7.87;4.70;;;22.00;99.90;;;;;;5028515;28;20206;-76
2021/09/25 11:29:54;;;;;;;6.53;4.73;;;22.00;99.90;;;;;;5010988;28;20243;-75
2021/09/25 11:32:24;;;;;;;8.27;4.37;;;22.10;99.90;;;;;;5011509;28;20175;-75
2021/09/25 11:34:50;;;;;;;7.03;4.77;;;22.10;99.90;;;;;;5028004;28;20631;-75
2021/09/25 11:37:15;;;;;;;8.20;4.43;;;22.20;99.90;;;;;;5013095;28;20176;-76
2021/09/25 11:39:41;;;;;;;6.87;4.00;;;22.10;99.90;;;;;;5028343;28;20400;-76
2021/09/25 11:42:26;;;;;;;6.30;4.40;;;22.00;99.90;;;;;;5027797;28;20202;-76
2021/09/25 11:45:02;;;;;;;6.97;4.27;;;21.90;99.90;;;;;;5010343;28;20238;-75
2021/09/25 11:47:39;;;;;;;6.03;3.67;;;21.90;99.90;;;;;;4994884;28;20499;-76
2021/09/25 11:50:41;;;;;;;7.67;4.27;;;22.00;99.90;;;;;;5011068;28;20178;-76
2021/09/25 11:53:09;;;;;;;4.57;3.40;;;22.10;99.90;;;;;;4955219;28;20297;-76
2021/09/25 11:55:36;;;;;;;4.87;3.37;;;22.10;99.90;;;;;;4988028;28;20231;-75
2021/09/25 11:58:05;;;;;;;4.23;3.27;;;21.90;99.90;;;;;;5011542;28;20182;-75
2021/09/25 12:00:58;;;;;;;5.37;3.73;;;21.90;99.90;;;;;;5027656;28;20195;-76
2021/09/25 12:03:26;;;;;;;5.60;3.17;;;21.90;99.90;;;;;;4993210;28;20195;-75
2021/09/25 12:05:53;;;;;;;7.13;3.60;;;22.10;99.90;;;;;;5027786;28;20203;-75
2021/09/25 12:08:22;;;;;;;5.83;3.73;;;22.10;99.90;;;;;;4994845;28;20194;-75
2021/09/25 12:11:10;;;;;;;5.83;4.07;;;22.10;99.90;;;;;;5011178;28;20187;-76
2021/09/25 12:13:37;;;;;;;4.50;3.53;;;22.00;99.90;;;;;;5010378;28;20184;-76
2021/09/25 12:16:04;;;;;;;4.67;3.20;;;22.00;99.90;;;;;;5011136;28;20203;-75
2021/09/25 12:18:34;;;;;;;4.60;3.70;;;22.10;99.90;;;;;;5011188;28;20725;-76
2021/09/25 12:21:13;;;;;;;5.13;3.70;;;22.10;99.90;;;;;;5010841;28;20588;-75
2021/09/25 12:23:43;;;;;;;4.53;3.40;;;22.00;99.90;;;;;;5027434;28;20172;-75
2021/09/25 12:26:16;;;;;;;6.63;3.40;;;21.80;99.90;;;;;;5027615;28;20207;-76
2021/09/25 12:28:57;;;;;;;5.13;3.40;;;21.70;99.90;;;;;;5010684;28;20180;-76
2021/09/25 12:31:28;;;;;;;4.53;3.33;;;21.60;99.90;;;;;;5026778;28;20175;-75
2021/09/25 12:33:55;;;;;;;5.27;3.07;;;21.40;99.90;;;;;;4994637;28;20205;-75
2021/09/25 12:36:32;;;;;;;4.27;3.10;;;21.40;99.90;;;;;;5010842;28;20226;-76
2021/09/25 12:39:03;;;;;;;4.77;3.23;;;21.30;99.90;;;;;;5012007;28;20183;-76
2021/09/25 12:41:28;;;;;;;4.10;3.07;;;21.20;99.90;;;;;;5027411;28;20172;-77
2021/09/25 12:43:58;;;;;;;5.03;3.10;;;21.20;99.90;;;;;;5010745;28;20572;-77